Time;durP1;ratioP1;P1;durP2;ratioP2;P2;SDS_P1;SDS_P2;PMS_P1;PMS_P2;Temp;Humidity;BMP_temperature;BMP_pressure;BME280_temperature;BME280_humidity;BME280_pressure;Samples;Min_cycle;Max_cycle;Signal;HPM_P1;HPM_P2
2023/06/19 00:00:43;;;;;;;0.67;0.67;;;;;;;20.87;100.00;99260.44;5072919;28;20197;-71
2023/06/19 00:03:10;;;;;;;0.40;0.40;;;;;;;20.89;100.00;99266.38;5072474;28;20204;-71
2023/06/19 00:05:37;;;;;;;1.60;1.50;;;;;;;20.86;100.00;99261.41;5072000;28;20207;-71
2023/06/19 00:08:06;;;;;;;0.60;0.60;;;;;;;20.77;100.00;99256.03;5072681;28;20196;-71
2023/06/19 00:10:33;;;;;;;0.53;0.53;;;;;;;20.68;100.00;99259.31;5071002;28;20212;-71
2023/06/19 00:13:01;;;;;;;0.53;0.53;;;;;;;20.66;100.00;99266.41;5072626;28;20203;-71
2023/06/19 00:15:29;;;;;;;0.60;0.60;;;;;;;20.46;100.00;99234.00;5072431;28;20209;-70
2023/06/19 00:17:56;;;;;;;0.80;0.80;;;;;;;20.59;100.00;99258.22;5072406;28;20291;-71
2023/06/19 00:20:24;;;;;;;0.60;0.60;;;;;;;20.58;100.00;99259.16;5072104;28;20194;-71
2023/06/19 00:22:51;;;;;;;0.60;0.60;;;;;;;20.60;100.00;99262.47;5071258;28;20227;-71
2023/06/19 00:25:18;;;;;;;0.80;0.80;;;;;;;20.59;100.00;99266.03;5071443;28;20218;-71
2023/06/19 00:27:45;;;;;;;0.50;0.50;;;;;;;20.51;100.00;99252.75;5072268;28;20227;-71
2023/06/19 00:30:13;;;;;;;0.77;0.77;;;;;;;20.59;100.00;99260.81;5071740;28;20259;-71
2023/06/19 00:32:46;;;;;;;0.77;0.77;;;;;;;20.52;100.00;99257.00;5072070;28;20198;-71
2023/06/19 00:35:14;;;;;;;0.50;0.50;;;;;;;20.51;100.00;99263.16;5071434;28;20227;-71
2023/06/19 00:37:44;;;;;;;0.80;0.80;;;;;;;20.46;100.00;99259.22;5071988;28;20206;-71
2023/06/19 00:40:17;;;;;;;0.70;0.70;;;;;;;20.49;100.00;99270.25;5071862;28;20203;-71
2023/06/19 00:42:44;;;;;;;0.60;0.60;;;;;;;20.45;100.00;99268.81;5072049;28;20663;-71
2023/06/19 00:45:12;;;;;;;0.80;0.80;;;;;;;20.38;100.00;99265.00;5070139;28;20268;-71
2023/06/19 00:47:39;;;;;;;0.60;0.60;;;;;;;20.35;100.00;99262.63;5071889;28;20205;-71
2023/06/19 00:50:07;;;;;;;0.50;0.50;;;;;;;20.31;100.00;99263.75;5072023;28;20207;-71
2023/06/19 00:52:35;;;;;;;0.77;0.77;;;;;;;20.29;100.00;99270.88;5072105;28;20230;-71
2023/06/19 00:55:03;;;;;;;0.50;0.50;;;;;;;20.23;100.00;99269.47;5071696;28;20260;-71
2023/06/19 00:57:31;;;;;;;0.60;0.60;;;;;;;20.18;100.00;99266.38;5070782;28;20197;-71
2023/06/19 00:59:58;;;;;;;0.50;0.50;;;;;;;20.16;100.00;99262.25;5071571;28;20203;-70
2023/06/19 01:02:27;;;;;;;0.80;0.80;;;;;;;20.11;100.00;99264.31;5071230;28;20202;-71
2023/06/19 01:04:56;;;;;;;0.43;0.43;;;;;;;20.04;100.00;99268.28;5071241;28;20216;-70
2023/06/19 01:07:30;;;;;;;1.07;1.07;;;;;;;20.00;100.00;99269.47;5071283;28;20197;-71
2023/06/19 01:10:03;;;;;;;0.40;0.40;;;;;;;19.96;100.00;99268.84;5071416;28;20604;-70
2023/06/19 01:12:34;;;;;;;0.70;0.70;;;;;;;19.84;100.00;99246.28;5070769;28;20296;-71
2023/06/19 01:15:05;;;;;;;0.60;0.60;;;;;;;19.85;100.00;99254.00;5071448;28;20271;-70
2023/06/19 01:17:33;;;;;;;0.30;0.30;;;;;;;19.85;100.00;99264.41;5070712;28;20198;-70
2023/06/19 01:20:00;;;;;;;0.60;0.60;;;;;;;19.79;100.00;99254.44;5071263;28;20686;-70
2023/06/19 01:22:29;;;;;;;0.40;0.40;;;;;;;19.64;100.00;99234.69;5070996;28;20252;-70
2023/06/19 01:24:56;;;;;;;0.53;0.53;;;;;;;19.58;100.00;99229.09;5070921;28;20213;-70
2023/06/19 01:27:24;;;;;;;0.57;0.57;;;;;;;19.65;100.00;99251.94;5070904;28;20203;-70
2023/06/19 01:29:51;;;;;;;0.47;0.47;;;;;;;19.54;100.00;99244.06;5070892;28;20667;-70
2023/06/19 01:32:21;;;;;;;0.50;0.50;;;;;;;19.53;100.00;99247.59;5070495;28;20265;-70
2023/06/19 01:34:49;;;;;;;0.60;0.60;;;;;;;19.43;100.00;99246.56;5071131;28;20202;-70
2023/06/19 01:37:16;;;;;;;0.60;0.60;;;;;;;19.40;100.00;99257.19;5070340;28;20293;-70
2023/06/19 01:39:46;;;;;;;0.70;0.70;;;;;;;19.41;100.00;99264.06;5071001;28;20243;-70
2023/06/19 01:42:14;;;;;;;0.70;0.70;;;;;;;19.45;100.00;99255.09;5069155;28;20294;-69
2023/06/19 01:44:41;;;;;;;0.50;0.50;;;;;;;19.43;100.00;99250.94;5070555;28;20219;-70
2023/06/19 01:47:10;;;;;;;0.50;0.50;;;;;;;19.42;100.00;99254.50;5070601;28;20211;-70
2023/06/19 01:49:37;;;;;;;0.50;0.50;;;;;;;19.42;100.00;99251.91;5069613;28;20287;-70
2023/06/19 01:52:05;;;;;;;0.40;0.40;;;;;;;19.44;100.00;99253.44;5070779;28;20208;-70
2023/06/19 01:54:32;;;;;;;0.63;0.63;;;;;;;19.36;100.00;99256.53;5069462;28;20259;-70
2023/06/19 01:57:00;;;;;;;0.80;0.80;;;;;;;19.38;100.00;99251.25;5070776;28;20195;-70
2023/06/19 01:59:27;;;;;;;0.40;0.40;;;;;;;19.29;100.00;99239.69;5070125;28;20196;-70
2023/06/19 02:01:53;;;;;;;0.67;0.67;;;;;;;19.40;100.00;99246.78;5069343;28;20202;-70
2023/06/19 02:04:22;;;;;;;0.60;0.60;;;;;;;19.27;100.00;99235.53;5069210;28;20219;-70
2023/06/19 02:06:49;;;;;;;0.70;0.70;;;;;;;19.30;100.00;99250.91;5070633;28;20203;-70
2023/06/19 02:09:16;;;;;;;0.80;0.80;;;;;;;19.27;100.00;99253.72;5070131;28;20205;-70
2023/06/19 02:11:42;;;;;;;0.50;0.50;;;;;;;19.25;100.00;99263.41;5069694;28;20690;-70
2023/06/19 02:14:11;;;;;;;0.70;0.70;;;;;;;19.22;100.00;99264.44;5069900;28;20251;-70
2023/06/19 02:16:38;;;;;;;0.67;0.67;;;;;;;19.18;100.00;99262.16;5070326;28;20242;-71
2023/06/19 02:19:05;;;;;;;0.60;0.60;;;;;;;19.18;100.00;99262.16;5069995;28;20212;-71
2023/06/19 02:21:31;;;;;;;0.70;0.70;;;;;;;19.15;100.00;99258.00;5070111;28;20218;-70
2023/06/19 02:23:59;;;;;;;0.50;0.50;;;;;;;19.15;100.00;99259.75;5069899;28;20257;-71
2023/06/19 02:26:28;;;;;;;0.50;0.50;;;;;;;19.13;100.00;99259.00;5070186;28;20232;-71
2023/06/19 02:28:55;;;;;;;0.80;0.80;;;;;;;19.10;100.00;99262.66;5070005;28;20220;-71
2023/06/19 02:31:24;;;;;;;0.40;0.40;;;;;;;18.88;100.00;99223.47;5069676;28;20204;-70
2023/06/19 02:33:51;;;;;;;0.47;0.47;;;;;;;19.04;100.00;99251.84;5069796;28;20193;-70
2023/06/19 02:36:19;;;;;;;0.50;0.50;;;;;;;19.11;100.00;99266.94;5070008;28;20203;-70
2023/06/19 02:38:46;;;;;;;0.70;0.70;;;;;;;19.08;100.00;99271.50;5069825;28;20304;-71
2023/06/19 02:41:13;;;;;;;0.60;0.60;;;;;;;19.10;100.00;99264.41;5069876;28;20576;-70
2023/06/19 02:43:40;;;;;;;0.60;0.60;;;;;;;19.11;100.00;99273.88;5069661;28;20203;-70
2023/06/19 02:46:07;;;;;;;0.53;0.53;;;;;;;19.12;100.00;99273.78;5069956;28;20658;-70
2023/06/19 02:48:35;;;;;;;0.57;0.57;;;;;;;19.14;100.00;99276.28;5069536;28;20203;-71
2023/06/19 02:51:02;;;;;;;0.60;0.60;;;;;;;19.09;100.00;99265.38;5069665;28;20200;-70
2023/06/19 02:53:29;;;;;;;0.60;0.60;;;;;;;19.15;100.00;99272.75;5068682;28;20263;-71
2023/06/19 02:55:55;;;;;;;0.50;0.50;;;;;;;19.13;100.00;99279.78;5069629;28;20197;-70
2023/06/19 02:58:22;;;;;;;0.60;0.60;;;;;;;19.12;100.00;99285.94;5069657;28;20263;-71
2023/06/19 03:00:49;;;;;;;0.57;0.57;;;;;;;19.08;100.00;99287.09;5069657;28;20213;-71
2023/06/19 03:03:16;;;;;;;0.50;0.50;;;;;;;19.09;100.00;99283.56;5069388;28;20217;-70
2023/06/19 03:05:44;;;;;;;0.50;0.50;;;;;;;19.11;100.00;99272.13;5069876;28;20569;-70
2023/06/19 03:08:11;;;;;;;1.13;1.13;;;;;;;18.97;100.00;99256.59;5069478;28;20571;-70
2023/06/19 03:10:38;;;;;;;2.00;1.90;;;;;;;19.12;100.00;99281.59;5069938;28;20194;-70
2023/06/19 03:13:05;;;;;;;0.60;0.60;;;;;;;19.13;100.00;99288.44;5069211;28;20275;-71
2023/06/19 03:15:32;;;;;;;0.43;0.43;;;;;;;19.16;100.00;99287.41;5069379;28;20221;-70
2023/06/19 03:17:58;;;;;;;0.60;0.60;;;;;;;19.17;100.00;99281.25;5069463;28;20203;-69
2023/06/19 03:20:25;;;;;;;0.50;0.50;;;;;;;19.20;100.00;99281.06;5069378;28;20203;-70
2023/06/19 03:22:53;;;;;;;0.40;0.40;;;;;;;19.20;100.00;99281.06;5069583;28;20223;-70
2023/06/19 03:25:20;;;;;;;0.47;0.47;;;;;;;19.13;100.00;99269.41;5068988;28;20216;-70
2023/06/19 03:27:47;;;;;;;0.50;0.50;;;;;;;19.21;100.00;99280.13;5068050;28;20257;-70
2023/06/19 03:30:18;;;;;;;0.50;0.50;;;;;;;19.33;100.00;99292.28;5068905;28;20203;-70
2023/06/19 03:32:45;;;;;;;0.50;0.50;;;;;;;19.36;100.00;99297.28;5068615;28;20197;-71
2023/06/19 03:35:11;;;;;;;0.80;0.80;;;;;;;19.39;100.00;99291.88;5068694;28;20670;-70
2023/06/19 03:37:38;;;;;;;0.83;0.83;;;;;;;19.46;100.00;99290.56;5068957;28;20210;-70
2023/06/19 03:40:09;;;;;;;0.40;0.40;;;;;;;19.50;100.00;99292.03;5068690;28;20218;-70
2023/06/19 03:42:35;;;;;;;0.43;0.43;;;;;;;19.57;100.00;99295.88;5069408;28;20205;-70
2023/06/19 03:45:02;;;;;;;0.70;0.70;;;;;;;19.64;100.00;99294.53;5069090;28;20229;-71
2023/06/19 03:47:29;;;;;;;0.40;0.40;;;;;;;19.71;100.00;99292.34;5069223;28;20260;-70
2023/06/19 03:49:56;;;;;;;0.80;0.80;;;;;;;19.82;100.00;99290.63;5069144;28;20197;-71
2023/06/19 03:52:22;;;;;;;0.40;0.40;;;;;;;19.90;100.00;99293.50;5068160;28;20248;-70
2023/06/19 03:54:49;;;;;;;0.33;0.33;;;;;;;19.97;100.00;99298.31;5069213;28;20252;-71
2023/06/19 03:57:17;;;;;;;0.70;0.70;;;;;;;19.93;100.00;99277.69;5068844;28;20203;-69
2023/06/19 03:59:44;;;;;;;0.53;0.53;;;;;;;20.02;100.00;99275.41;5069417;28;20202;-70
2023/06/19 04:02:11;;;;;;;0.40;0.40;;;;;;;20.16;100.00;99293.47;5072162;28;20193;-71
2023/06/19 04:04:37;;;;;;;0.50;0.50;;;;;;;20.21;100.00;99287.00;5072489;28;20208;-71
2023/06/19 04:07:05;;;;;;;0.40;0.40;;;;;;;20.27;100.00;99290.97;5072023;28;20198;-71
2023/06/19 04:09:32;;;;;;;0.70;0.70;;;;;;;20.33;100.00;99287.91;5072365;28;20209;-71
2023/06/19 04:11:58;;;;;;;0.40;0.40;;;;;;;20.44;100.00;99293.19;5071333;28;20203;-71
2023/06/19 04:14:26;;;;;;;0.73;0.73;;;;;;;20.51;100.00;99289.22;5071815;28;20213;-70
2023/06/19 04:16:53;;;;;;;0.90;0.90;;;;;;;20.59;100.00;99286.84;5071789;28;20202;-71
2023/06/19 04:19:20;;;;;;;0.40;0.40;;;;;;;20.64;100.00;99273.50;5071851;28;20206;-71
2023/06/19 04:21:47;;;;;;;0.37;0.37;;;;;;;20.83;100.00;99279.88;5071383;28;20197;-71
2023/06/19 04:24:13;;;;;;;0.77;0.77;;;;;;;20.89;100.00;99255.94;5072137;28;20203;-71
2023/06/19 04:26:42;;;;;;;0.60;0.60;;;;;;;21.13;100.00;99275.94;5072236;28;20741;-70
2023/06/19 04:29:16;;;;;;;0.47;0.47;;;;;;;21.19;100.00;99272.88;5071808;28;20218;-71
2023/06/19 04:31:46;;;;;;;0.73;0.73;;;;;;;21.19;100.00;99265.06;5068912;28;20212;-70
2023/06/19 04:34:14;;;;;;;0.37;0.37;;;;;;;21.37;100.00;99279.28;5067649;28;20207;-71
2023/06/19 04:36:41;;;;;;;1.03;1.03;;;;;;;21.50;100.00;99281.78;5071513;28;20656;-71
2023/06/19 04:39:09;;;;;;;0.40;0.40;;;;;;;21.66;97.54;99272.66;5071267;28;20666;-71
2023/06/19 04:41:38;;;;;;;0.47;0.47;;;;;;;21.78;99.39;99279.53;5071490;28;20216;-69
2023/06/19 04:44:06;;;;;;;0.43;0.43;;;;;;;21.92;98.18;99287.16;5071387;28;20204;-70
2023/06/19 04:46:32;;;;;;;0.60;0.60;;;;;;;22.09;97.63;99290.22;5069149;28;20245;-69
2023/06/19 04:49:03;;;;;;;0.43;0.43;;;;;;;22.28;95.43;99287.81;5068982;28;20226;-69
2023/06/19 04:51:31;;;;;;;0.73;0.73;;;;;;;22.37;93.35;99287.06;5070588;28;20630;-69
2023/06/19 04:53:58;;;;;;;0.77;0.77;;;;;;;22.45;93.19;99282.06;5069270;28;20212;-69
2023/06/19 04:56:25;;;;;;;0.30;0.30;;;;;;;22.52;92.03;99282.41;5069072;28;20651;-69
2023/06/19 04:58:51;;;;;;;0.53;0.53;;;;;;;22.60;92.01;99287.81;5069314;28;20222;-69
2023/06/19 05:01:22;;;;;;;0.60;0.60;;;;;;;22.72;92.57;99294.69;5069319;28;20576;-70
2023/06/19 05:03:49;;;;;;;0.40;0.40;;;;;;;22.84;91.60;99291.09;5069482;28;20208;-70
2023/06/19 05:06:18;;;;;;;0.60;0.60;;;;;;;23.01;91.43;99291.34;5069864;28;20219;-69
2023/06/19 05:08:44;;;;;;;0.40;0.40;;;;;;;23.13;89.49;99283.44;5068742;28;20712;-70
2023/06/19 05:11:11;;;;;;;0.40;0.40;;;;;;;23.23;89.12;99297.41;5066048;28;20619;-70
2023/06/19 05:13:38;;;;;;;0.73;0.73;;;;;;;23.40;90.15;99292.44;5067101;28;20208;-70
2023/06/19 05:16:05;;;;;;;0.50;0.50;;;;;;;23.54;87.52;99296.50;5069377;28;20219;-70
2023/06/19 05:18:31;;;;;;;0.50;0.50;;;;;;;23.60;87.54;99297.78;5068915;28;20208;-69
2023/06/19 05:20:58;;;;;;;0.40;0.40;;;;;;;23.60;87.35;99303.84;5068887;28;20204;-69
2023/06/19 05:23:26;;;;;;;0.67;0.60;;;;;;;23.71;86.29;99298.53;5069428;28;20208;-69
2023/06/19 05:25:53;;;;;;;0.50;0.50;;;;;;;23.73;87.12;99296.59;5068113;28;20600;-68
2023/06/19 05:28:20;;;;;;;0.70;0.70;;;;;;;23.85;84.54;99295.53;5068401;28;20680;-68
2023/06/19 05:30:47;;;;;;;0.50;0.50;;;;;;;23.95;84.68;99300.81;5068480;28;20599;-69
2023/06/19 05:33:15;;;;;;;0.53;0.53;;;;;;;23.99;84.29;99307.44;5068225;28;20200;-69
2023/06/19 05:35:42;;;;;;;0.50;0.40;;;;;;;24.13;84.38;99299.25;5068779;28;20208;-68
2023/06/19 05:38:09;;;;;;;0.50;0.50;;;;;;;24.25;83.27;99307.81;5068055;28;20868;-68
2023/06/19 05:40:37;;;;;;;0.50;0.50;;;;;;;24.37;85.08;99302.31;5068257;28;20219;-68
2023/06/19 05:43:04;;;;;;;0.40;0.40;;;;;;;24.54;83.14;99314.75;5067420;28;20301;-70
2023/06/19 05:45:31;;;;;;;0.33;0.33;;;;;;;24.79;82.01;99308.13;5067106;28;20239;-70
2023/06/19 05:47:58;;;;;;;0.40;0.40;;;;;;;24.97;81.65;99310.94;5069350;28;20265;-70
2023/06/19 05:50:24;;;;;;;0.30;0.30;;;;;;;25.14;81.91;99314.66;5068203;28;20647;-69
2023/06/19 05:52:51;;;;;;;0.60;0.60;;;;;;;25.22;78.59;99309.50;5067375;28;20656;-69
2023/06/19 05:55:18;;;;;;;0.23;0.23;;;;;;;25.23;78.71;99316.44;5066080;28;20211;-70
2023/06/19 05:57:46;;;;;;;0.40;0.40;;;;;;;25.31;80.31;99313.91;5068050;28;20223;-69
2023/06/19 06:00:15;;;;;;;0.40;0.40;;;;;;;25.35;77.86;99313.50;5069242;28;20200;-69
2023/06/19 06:02:41;;;;;;;0.40;0.40;;;;;;;25.45;80.77;99305.59;5067000;28;20208;-67
2023/06/19 06:05:09;;;;;;;0.50;0.50;;;;;;;25.58;76.47;99312.22;5068635;28;20207;-67
2023/06/19 06:07:36;;;;;;;0.33;0.33;;;;;;;25.63;77.54;99314.41;5068095;28;20675;-68
2023/06/19 06:10:05;;;;;;;0.30;0.30;;;;;;;25.81;78.16;99323.19;5067507;28;20650;-68
2023/06/19 06:12:34;;;;;;;0.50;0.50;;;;;;;26.02;76.91;99309.81;5067111;28;20682;-68
2023/06/19 06:15:02;;;;;;;0.40;0.40;;;;;;;26.35;79.50;99311.03;5067567;28;20622;-68
2023/06/19 06:17:29;;;;;;;0.23;0.23;;;;;;;26.59;74.91;99321.81;5068098;28;20192;-69
2023/06/19 06:19:56;;;;;;;0.37;0.37;;;;;;;26.67;72.02;99321.91;5066882;28;20258;-68
2023/06/19 06:22:22;;;;;;;0.37;0.37;;;;;;;26.85;73.49;99314.84;5067649;28;20211;-69
2023/06/19 06:24:49;;;;;;;0.50;0.50;;;;;;;26.93;70.48;99322.00;5064097;28;20204;-67
2023/06/19 06:27:16;;;;;;;0.40;0.40;;;;;;;27.05;71.09;99320.75;5065067;28;20224;-69
2023/06/19 06:29:43;;;;;;;1.17;1.17;;;;;;;27.08;70.13;99321.28;5067963;28;20207;-67
2023/06/19 06:32:11;;;;;;;0.60;0.60;;;;;;;27.12;71.99;99317.38;5067305;28;20525;-67
2023/06/19 06:34:38;;;;;;;0.53;0.53;;;;;;;27.22;70.02;99309.38;5067190;28;20204;-68
2023/06/19 06:37:05;;;;;;;0.60;0.60;;;;;;;27.38;71.40;99312.13;5066961;28;20203;-67
2023/06/19 06:39:31;;;;;;;0.30;0.30;;;;;;;27.63;72.50;99305.22;5068898;28;20604;-68
2023/06/19 06:41:58;;;;;;;0.40;0.40;;;;;;;27.68;67.16;99317.94;5068075;28;20584;-69
2023/06/19 06:44:25;;;;;;;0.30;0.30;;;;;;;27.81;70.34;99316.53;5068033;28;20697;-68
2023/06/19 06:46:51;;;;;;;0.30;0.30;;;;;;;28.00;66.83;99316.28;5068030;28;20227;-67
2023/06/19 06:49:20;;;;;;;1.90;0.50;;;;;;;28.26;71.38;99312.75;5068088;28;20204;-67
2023/06/19 06:51:47;;;;;;;2.27;0.50;;;;;;;28.36;68.71;99308.19;5070142;28;20204;-67
2023/06/19 06:54:14;;;;;;;0.60;0.60;;;;;;;28.31;65.11;99315.72;5070639;28;20231;-67
2023/06/19 06:56:41;;;;;;;0.37;0.37;;;;;;;28.40;65.92;99314.78;5070691;28;20231;-67
2023/06/19 06:59:08;;;;;;;1.23;0.20;;;;;;;28.42;63.86;99318.06;5070590;28;20200;-66
2023/06/19 07:01:34;;;;;;;0.30;0.30;;;;;;;28.55;63.01;99329.81;5069967;28;20619;-66
2023/06/19 07:04:01;;;;;;;0.43;0.43;;;;;;;28.34;63.10;99305.69;5068989;28;20192;-66
2023/06/19 07:06:29;;;;;;;0.40;0.40;;;;;;;28.71;65.66;99323.78;5069134;28;20208;-66
2023/06/19 07:08:56;;;;;;;0.60;0.60;;;;;;;28.89;63.65;99320.97;5069284;28;20712;-67
2023/06/19 07:11:23;;;;;;;0.57;0.57;;;;;;;28.84;63.01;99328.56;5067340;28;20584;-69
2023/06/19 07:13:49;;;;;;;0.57;0.57;;;;;;;28.87;62.12;99329.06;5068296;28;20220;-67
2023/06/19 07:16:16;;;;;;;0.60;0.60;;;;;;;28.86;62.67;99330.03;5069063;28;20195;-66
2023/06/19 07:18:43;;;;;;;0.47;0.47;;;;;;;28.84;65.39;99328.56;5069142;28;20200;-67
2023/06/19 07:21:13;;;;;;;0.87;0.50;;;;;;;28.92;63.55;99304.81;5070374;28;20200;-67
2023/06/19 07:23:42;;;;;;;0.37;0.37;;;;;;;29.31;61.14;99329.56;5070217;28;20296;-67
2023/06/19 07:26:10;;;;;;;0.30;0.30;;;;;;;29.42;60.48;99326.59;5070550;28;20285;-68
2023/06/19 07:28:37;;;;;;;0.70;0.70;;;;;;;29.66;59.65;99341.56;5070219;28;20723;-67
2023/06/19 07:31:04;;;;;;;0.52;0.52;;;;;;;29.75;59.88;99335.25;5070645;28;20624;-67
2023/06/19 07:33:30;;;;;;;0.73;0.73;;;;;;;29.83;57.50;99337.91;5070191;28;20222;-67
2023/06/19 07:35:58;;;;;;;0.55;0.55;;;;;;;29.74;59.09;99328.31;5073651;28;20196;-67
2023/06/19 07:38:24;;;;;;;0.65;0.65;;;;;;;29.71;57.45;99318.09;5074395;28;20203;-67
2023/06/19 07:40:53;;;;;;;0.73;0.50;;;;;;;29.67;59.17;99332.63;5073981;28;20207;-67
2023/06/19 07:43:22;;;;;;;0.50;0.50;;;;;;;29.68;59.09;99323.72;5072689;28;20560;-67
2023/06/19 07:45:48;;;;;;;0.38;0.38;;;;;;;29.91;60.92;99329.94;5072791;28;20203;-68
2023/06/19 07:48:15;;;;;;;0.57;0.55;;;;;;;30.03;60.79;99317.16;5073784;28;20672;-67
2023/06/19 07:50:42;;;;;;;0.50;0.50;;;;;;;30.26;56.46;99325.97;5073333;28;20196;-67
2023/06/19 07:53:09;;;;;;;0.40;0.40;;;;;;;30.08;58.21;99336.81;5072536;28;20199;-67
2023/06/19 07:55:36;;;;;;;0.43;0.43;;;;;;;29.90;56.51;99338.03;5070719;28;20226;-67
2023/06/19 07:58:04;;;;;;;0.32;0.32;;;;;;;29.89;56.61;99337.22;5072846;28;20238;-67
2023/06/19 08:00:30;;;;;;;0.38;0.38;;;;;;;30.02;57.46;99337.50;5073023;28;20672;-67
2023/06/19 08:02:57;;;;;;;0.98;0.80;;;;;;;29.98;57.10;99344.13;5073081;28;20207;-67
2023/06/19 08:05:24;;;;;;;0.40;0.40;;;;;;;30.10;58.24;99337.47;5073263;28;20208;-68
2023/06/19 08:07:51;;;;;;;0.60;0.60;;;;;;;30.25;60.95;99340.19;5071967;28;20266;-68
2023/06/19 08:10:18;;;;;;;0.40;0.40;;;;;;;30.25;58.55;99336.72;5072184;28;20219;-67
2023/06/19 08:12:45;;;;;;;0.40;0.40;;;;;;;30.29;57.39;99335.38;5072115;28;20196;-67
2023/06/19 08:15:14;;;;;;;1.15;0.70;;;;;;;30.27;55.66;99334.75;5070569;28;20192;-67
2023/06/19 08:17:41;;;;;;;2.22;0.60;;;;;;;30.21;56.13;99338.91;5070563;28;20294;-67
2023/06/19 08:20:10;;;;;;;0.40;0.40;;;;;;;30.41;56.34;99342.78;5071150;28;20196;-67
2023/06/19 08:22:37;;;;;;;0.28;0.28;;;;;;;30.61;53.58;99348.47;5071690;28;20295;-68
2023/06/19 08:25:05;;;;;;;0.50;0.50;;;;;;;30.77;54.13;99345.72;5071542;28;20196;-67
2023/06/19 08:27:32;;;;;;;0.57;0.57;;;;;;;30.85;52.17;99344.84;5071086;28;20223;-67
2023/06/19 08:29:59;;;;;;;5.28;0.63;;;;;;;30.98;53.42;99345.09;5071618;28;20668;-67
2023/06/19 08:32:27;;;;;;;0.60;0.50;;;;;;;30.89;52.41;99346.94;5071438;28;20592;-67
2023/06/19 08:34:54;;;;;;;0.60;0.60;;;;;;;30.60;51.74;99315.03;5071635;28;20600;-67
2023/06/19 08:37:21;;;;;;;0.35;0.35;;;;;;;30.93;52.56;99348.22;5070806;28;20211;-67
2023/06/19 08:39:48;;;;;;;0.52;0.52;;;;;;;31.08;51.15;99346.47;5070640;28;20250;-67
2023/06/19 08:42:14;;;;;;;0.40;0.40;;;;;;;31.23;54.52;99347.34;5067226;28;20695;-68
2023/06/19 08:44:41;;;;;;;0.47;0.47;;;;;;;31.39;50.21;99349.03;5069854;28;20215;-67
2023/06/19 08:47:09;;;;;;;0.38;0.38;;;;;;;31.34;50.91;99345.28;5069496;28;20220;-67
2023/06/19 08:49:37;;;;;;;0.80;0.57;;;;;;;31.34;51.81;99342.63;5070107;28;20211;-67
2023/06/19 08:52:05;;;;;;;0.40;0.40;;;;;;;31.45;50.48;99352.78;5070053;28;20215;-68
2023/06/19 08:54:32;;;;;;;3.00;0.55;;;;;;;31.35;48.49;99320.41;5069232;28;20203;-68
2023/06/19 08:57:01;;;;;;;0.40;0.40;;;;;;;31.58;48.06;99347.72;5069309;28;20196;-66
2023/06/19 08:59:29;;;;;;;0.52;0.52;;;;;;;31.56;49.48;99349.72;5070081;28;20204;-67
2023/06/19 09:01:56;;;;;;;0.35;0.35;;;;;;;31.73;51.14;99340.56;5070306;28;20292;-68
2023/06/19 09:04:26;;;;;;;0.50;0.50;;;;;;;31.88;51.51;99343.25;5070512;28;20200;-67
2023/06/19 09:06:56;;;;;;;0.30;0.30;;;;;;;31.77;47.90;99336.56;5070193;28;20220;-67
2023/06/19 09:09:24;;;;;;;0.50;0.50;;;;;;;31.55;46.12;99337.47;5070171;28;20200;-67
2023/06/19 09:11:59;;;;;;;0.30;0.30;;;;;;;31.66;46.83;99329.91;5070000;28;20196;-67
2023/06/19 09:14:33;;;;;;;0.40;0.40;;;;;;;31.71;48.13;99330.19;5070664;28;20281;-67
2023/06/19 09:17:01;;;;;;;0.40;0.40;;;;;;;31.82;48.48;99336.03;5069676;28;20720;-68
2023/06/19 09:19:30;;;;;;;0.50;0.50;;;;;;;31.79;48.51;99329.28;5069181;28;20203;-67
2023/06/19 09:22:05;;;;;;;0.82;0.82;;;;;;;31.98;47.88;99333.19;5069618;28;20196;-68
2023/06/19 09:24:37;;;;;;;0.40;0.40;;;;;;;32.18;49.80;99313.88;5070247;28;20659;-68
2023/06/19 09:27:13;;;;;;;0.50;0.50;;;;;;;32.36;44.85;99320.59;5070479;28;20229;-68
2023/06/19 09:29:42;;;;;;;2.10;0.40;;;;;;;32.35;43.27;99325.09;5071460;28;20192;-67
2023/06/19 09:32:19;;;;;;;0.32;0.32;;;;;;;32.51;48.26;99316.06;5068498;28;20206;-67
2023/06/19 09:34:48;;;;;;;0.38;0.38;;;;;;;32.64;44.35;99324.19;5071010;28;20614;-67
2023/06/19 09:37:22;;;;;;;0.40;0.40;;;;;;;32.62;44.49;99320.91;5071515;28;20196;-67
2023/06/19 09:39:53;;;;;;;0.47;0.47;;;;;;;32.72;46.57;99321.44;5070609;28;20218;-68
2023/06/19 09:42:27;;;;;;;0.40;0.40;;;;;;;32.80;44.81;99323.94;5069919;28;20195;-68
2023/06/19 09:44:59;;;;;;;0.32;0.32;;;;;;;32.73;46.64;99315.91;5068371;28;20974;-68
2023/06/19 09:47:27;;;;;;;0.40;0.40;;;;;;;32.66;45.18;99322.19;5069510;28;20220;-67
2023/06/19 09:49:56;;;;;;;0.40;0.40;;;;;;;32.67;48.38;99313.19;5068957;28;20349;-68
2023/06/19 09:52:24;;;;;;;0.43;0.43;;;;;;;32.68;48.02;99320.16;5069753;28;20214;-67
2023/06/19 09:54:52;;;;;;;0.40;0.40;;;;;;;32.65;45.27;99309.91;5070417;28;20192;-69
2023/06/19 09:57:19;;;;;;;0.38;0.38;;;;;;;32.80;45.84;99308.00;5069444;28;20200;-70
2023/06/19 09:59:49;;;;;;;0.60;0.60;;;;;;;32.85;42.73;99308.28;5070232;28;20283;-69
2023/06/19 10:02:17;;;;;;;0.50;0.50;;;;;;;32.84;42.55;99311.09;5070192;28;20207;-69
2023/06/19 10:04:46;;;;;;;0.75;0.60;;;;;;;32.82;47.60;99303.34;5069058;28;20200;-67
2023/06/19 10:07:20;;;;;;;0.63;0.63;;;;;;;32.95;44.66;99306.13;5068783;28;20220;-68
2023/06/19 10:09:59;;;;;;;0.40;0.40;;;;;;;32.87;44.20;99286.81;5067513;28;20203;-68
2023/06/19 10:12:36;;;;;;;0.40;0.40;;;;;;;32.74;43.65;99295.50;5063620;28;20283;-68
2023/06/19 10:15:12;;;;;;;0.40;0.40;;;;;;;32.81;45.31;99300.88;5065946;28;20200;-68
2023/06/19 10:17:47;;;;;;;0.50;0.50;;;;;;;33.03;44.51;99297.16;5066371;28;20664;-71
2023/06/19 10:20:23;;;;;;;0.50;0.50;;;;;;;33.21;45.12;99285.09;5070094;28;20214;-69
2023/06/19 10:22:57;;;;;;;0.50;0.50;;;;;;;33.37;45.76;99294.63;5068843;28;20199;-70
2023/06/19 10:25:28;;;;;;;0.65;0.65;;;;;;;33.39;43.06;99289.09;5070156;28;20575;-67
2023/06/19 10:27:55;;;;;;;0.43;0.43;;;;;;;33.29;41.32;99297.41;5070503;28;20224;-68
2023/06/19 10:30:22;;;;;;;0.90;0.90;;;;;;;33.31;41.53;99289.25;5070735;28;20200;-68
2023/06/19 10:32:49;;;;;;;3.40;0.82;;;;;;;33.25;47.26;99293.47;5070222;28;20218;-69
2023/06/19 10:35:17;;;;;;;0.30;0.30;;;;;;;33.24;43.41;99283.88;5070069;28;20199;-68
2023/06/19 10:37:44;;;;;;;0.47;0.47;;;;;;;33.33;48.54;99279.22;5070708;28;20555;-68
2023/06/19 10:40:12;;;;;;;0.40;0.40;;;;;;;33.32;43.79;99280.25;5070683;28;20227;-68
2023/06/19 10:42:41;;;;;;;0.45;0.45;;;;;;;33.40;44.62;99272.13;5070814;28;20291;-67
2023/06/19 10:45:13;;;;;;;0.68;0.68;;;;;;;33.39;44.10;99279.28;5073035;28;20208;-68
2023/06/19 10:47:41;;;;;;;0.40;0.40;;;;;;;33.31;42.86;99283.94;5071570;28;20262;-68
2023/06/19 10:50:12;;;;;;;0.50;0.50;;;;;;;33.19;42.65;99271.16;5070312;28;20196;-71
2023/06/19 10:52:42;;;;;;;0.30;0.30;;;;;;;33.17;46.76;99267.06;5068086;28;20214;-71
2023/06/19 10:55:10;;;;;;;0.45;0.43;;;;;;;33.26;44.22;99277.34;5068555;28;20644;-72
2023/06/19 10:57:37;;;;;;;0.70;0.70;;;;;;;33.26;44.26;99247.31;5069207;28;20188;-72
2023/06/19 11:00:11;;;;;;;0.50;0.50;;;;;;;33.59;42.48;99258.13;5068007;28;20204;-71
2023/06/19 11:02:39;;;;;;;0.45;0.45;;;;;;;33.68;44.21;99259.63;5062672;28;20219;-71
2023/06/19 11:05:07;;;;;;;0.30;0.30;;;;;;;33.65;41.87;99260.03;5067048;28;20218;-71
2023/06/19 11:07:35;;;;;;;0.47;0.47;;;;;;;33.61;41.29;99248.13;5069982;28;20227;-71
2023/06/19 11:10:02;;;;;;;0.30;0.30;;;;;;;33.67;42.67;99253.47;5072005;28;20196;-70
2023/06/19 11:12:28;;;;;;;0.80;0.80;;;;;;;33.68;41.94;99259.63;5074022;28;20645;-71
2023/06/19 11:14:55;;;;;;;0.40;0.40;;;;;;;33.62;44.36;99249.78;5072549;28;20611;-70
2023/06/19 11:17:24;;;;;;;0.30;0.30;;;;;;;33.73;43.02;99257.22;5072683;28;20199;-73
2023/06/19 11:19:51;;;;;;;0.60;0.60;;;;;;;33.61;46.15;99248.13;5073611;28;20207;-70
2023/06/19 11:22:18;;;;;;;0.45;0.45;;;;;;;33.57;48.39;99241.56;5072830;28;20203;-70
2023/06/19 11:24:46;;;;;;;0.55;0.55;;;;;;;33.52;41.96;99252.78;5072512;28;20211;-71
2023/06/19 11:27:27;;;;;;;0.40;0.40;;;;;;;33.49;40.76;99255.00;5071787;28;20786;-69
2023/06/19 11:29:56;;;;;;;0.40;0.40;;;;;;;33.60;43.40;99249.13;5073114;28;20725;-69
2023/06/19 11:32:25;;;;;;;0.60;0.60;;;;;;;33.53;42.90;99250.94;5069876;28;20299;-68